»·PEaware :: UAL1669 KRNO-KSFO

UAL1669 :: KRNO-KSFO

FLIGHT INFORMATION

Flight Status: Arrived
Operator:
United Airlines
More flights by this operator :: More flights under this callsign
Pilot: Henderson P. (1210)
Aircraft: AIRBUS A319
(A319)
More flights by this aircraft type
Origin: KRNO Reno/Tahoe Intl
United States
Destination: KSFO San Francisco Intl
United States
More flights between these airports :: More routes between these airports
Route: ZEFFR6 MRLET LEGGS BDEGA3
File this flight plan on PilotEdge
Remarks:
Altitude:
(Current/Filed)
28,000ft
Speed:
(Current/Filed)
413kts
Departed: 09-Oct-18 06:10 AM
Arrived: 09-Oct-18 06:57 AM
Distance/Time
Traveled:
167nm/0:46
Distance/Time
To Go:
Arrived

Flight Plot

Page will automatically refresh every two minutes.

Flight plan parsing failed; only flown route is shown


Map Options




Map Legend


Flown Route
Filed Route
Departure Airport
Arrival Airport
Navaid (VOR, NDB)
Fix

Horizontal Profiles

Position Reports

Time Latitude Longitude Heading Altitude Ground
Speed
09-Oct-18 05:39 39.506573 -119.773291 359 4429ft 0kts
09-Oct-18 05:40 39.506573 -119.773291 359 4429ft 0kts
09-Oct-18 05:41 39.506573 -119.773291 359 4429ft 0kts
09-Oct-18 05:42 39.506573 -119.773291 359 4429ft 0kts
09-Oct-18 05:43 39.506573 -119.773291 359 4429ft 0kts
09-Oct-18 05:44 39.506573 -119.773291 359 4429ft 0kts
09-Oct-18 05:45 39.506573 -119.773291 359 4429ft 0kts
09-Oct-18 05:46 39.506573 -119.773291 359 4429ft 0kts
09-Oct-18 05:47 39.506573 -119.773291 359 4429ft 0kts
09-Oct-18 05:48 39.506573 -119.773291 359 4429ft 0kts
09-Oct-18 05:49 39.506417 -119.773292 3 4429ft 2kts
09-Oct-18 05:50 39.505894 -119.773726 90 4429ft 1kts
09-Oct-18 05:51 39.505894 -119.773726 90 4429ft 0kts
09-Oct-18 05:52 39.505894 -119.773725 90 4429ft 0kts
09-Oct-18 05:53 39.505894 -119.773723 90 4429ft 0kts
09-Oct-18 05:54 39.505894 -119.773721 90 4429ft 0kts
09-Oct-18 05:55 39.505894 -119.773720 90 4429ft 0kts
09-Oct-18 05:56 39.505894 -119.773718 90 4429ft 0kts
09-Oct-18 05:57 39.505894 -119.773717 90 4429ft 0kts
09-Oct-18 05:58 39.505894 -119.773715 90 4429ft 0kts
09-Oct-18 05:59 39.505894 -119.773713 90 4429ft 0kts
09-Oct-18 06:00 39.505894 -119.773712 90 4429ft 0kts
09-Oct-18 06:01 39.505894 -119.773710 90 4429ft 0kts
09-Oct-18 06:02 39.505894 -119.773708 90 4429ft 0kts
09-Oct-18 06:03 39.505894 -119.773707 90 4429ft 0kts
09-Oct-18 06:04 39.505894 -119.773705 90 4429ft 0kts
09-Oct-18 06:05 39.505893 -119.773545 90 4429ft 4kts
09-Oct-18 06:06 39.507168 -119.771477 359 4429ft 13kts
09-Oct-18 06:07 39.511526 -119.771471 359 4429ft 16kts
09-Oct-18 06:08 39.513783 -119.770534 94 4429ft 5kts
09-Oct-18 06:09 39.513773 -119.770338 93 4429ft 0kts
09-Oct-18 06:10 39.513773 -119.770337 93 4429ft 0kts
09-Oct-18 06:11 39.513345 -119.769228 182 4429ft 0kts
09-Oct-18 06:12 39.490618 -119.769244 178 4671ft 168kts
09-Oct-18 06:13 39.444860 -119.768880 182 7701ft 168kts
09-Oct-18 06:14 39.391837 -119.769403 181 9544ft 224kts
09-Oct-18 06:15 39.315946 -119.771052 189 10979ft 320kts
09-Oct-18 06:16 39.220621 -119.800413 206 12852ft 379kts
09-Oct-18 06:17 39.174945 -119.905546 280 15387ft 368kts
09-Oct-18 06:18 39.194478 -120.036688 285 18015ft 378kts
09-Oct-18 06:19 39.212917 -120.172359 286 20379ft 389kts
09-Oct-18 06:20 39.232116 -120.311287 286 22595ft 398kts
09-Oct-18 06:21 39.251541 -120.454071 286 24572ft 406kts
09-Oct-18 06:22 39.270609 -120.595611 286 27156ft 394kts
09-Oct-18 06:23 39.289107 -120.734302 286 28054ft 389kts
09-Oct-18 06:24 39.307301 -120.871609 286 28047ft 389kts
09-Oct-18 06:25 39.325297 -121.009730 284 28033ft 390kts
09-Oct-18 06:26 39.301625 -121.150182 243 27947ft 434kts
09-Oct-18 06:27 39.222217 -121.270483 237 27940ft 440kts
09-Oct-18 06:28 39.143728 -121.391764 237 27919ft 441kts
09-Oct-18 06:29 39.064634 -121.512002 237 27925ft 439kts
09-Oct-18 06:30 38.992190 -121.621998 237 27862ft 440kts
09-Oct-18 06:31 38.912885 -121.742007 236 27849ft 439kts
09-Oct-18 06:32 38.833962 -121.860891 236 27840ft 436kts
09-Oct-18 06:33 38.755355 -121.979015 236 27871ft 439kts
09-Oct-18 06:34 38.675848 -122.097839 236 27889ft 440kts
09-Oct-18 06:35 38.596146 -122.216636 235 27896ft 440kts
09-Oct-18 06:36 38.516425 -122.335038 235 27902ft 439kts
09-Oct-18 06:37 38.440589 -122.447260 235 27575ft 433kts
09-Oct-18 06:38 38.362463 -122.563548 235 24925ft 428kts
09-Oct-18 06:39 38.285946 -122.676662 235 22691ft 414kts
09-Oct-18 06:40 38.195732 -122.759367 182 20464ft 422kts
09-Oct-18 06:41 38.083584 -122.726090 166 18308ft 410kts
09-Oct-18 06:42 37.974166 -122.695401 167 16300ft 393kts
09-Oct-18 06:43 37.861573 -122.635495 136 13956ft 372kts
09-Oct-18 06:44 37.803724 -122.571456 137 12480ft 363kts
09-Oct-18 06:45 37.728893 -122.492913 137 11320ft 328kts
09-Oct-18 06:46 37.665540 -122.425335 137 11000ft 319kts
09-Oct-18 06:47 37.596418 -122.355644 151 10795ft 319kts
09-Oct-18 06:48 37.516434 -122.309552 152 9280ft 307kts
09-Oct-18 06:49 37.441794 -122.262313 152 7673ft 299kts
09-Oct-18 06:50 37.386831 -122.187928 113 5954ft 291kts
09-Oct-18 06:51 37.393120 -122.097375 41 4497ft 268kts
09-Oct-18 06:52 37.460543 -122.096013 321 3102ft 252kts
09-Oct-18 06:53 37.506747 -122.145143 320 3100ft 188kts
09-Oct-18 06:54 37.542063 -122.192223 297 2907ft 187kts
09-Oct-18 06:55 37.563571 -122.243654 298 2065ft 142kts
09-Oct-18 06:56 37.580938 -122.285045 297 1351ft 128kts
09-Oct-18 06:57 37.597434 -122.323867 297 673ft 123kts
09-Oct-18 06:58 37.613373 -122.362164 296 46ft 122kts
09-Oct-18 06:59 37.621814 -122.382408 297 27ft 37kts
09-Oct-18 07:00 37.622548 -122.388914 298 27ft 17kts
09-Oct-18 07:01 37.620282 -122.392355 205 27ft 14kts
09-Oct-18 07:02 37.618351 -122.389052 111 27ft 2kts
09-Oct-18 07:03 37.618229 -122.388103 130 27ft 0kts
09-Oct-18 07:04 37.618222 -122.388092 130 27ft 0kts
09-Oct-18 07:05 37.618212 -122.388078 130 27ft 0kts
09-Oct-18 07:06 37.618212 -122.388078 130 27ft 0kts
09-Oct-18 07:07 37.618212 -122.388078 130 27ft 0kts
09-Oct-18 07:08 37.618212 -122.388078 130 27ft 0kts
09-Oct-18 07:09 37.618212 -122.388078 130 27ft 0kts
09-Oct-18 07:10 37.618212 -122.388078 130 27ft 0kts
09-Oct-18 07:11 37.618212 -122.388078 130 27ft 0kts
09-Oct-18 07:12 37.618212 -122.388078 130 27ft 0kts
09-Oct-18 07:13 37.618212 -122.388078 130 27ft 0kts

Navigation Log

Ident Type
Flight plan parsing failed, navigation log unavailable